Capitol Logistics 1130


EGNX
East Midlands Airport
Derby, GB
EBLG
Liège Airport
Liege, BE

Activity Log

Date Flight Route Aircraft Duration
04/24/2020 CPX1130 DTY4P DTY BPK L10 DVR UL9 KONAN UL607 KOK KOK5X B738 1h 09m
02/16/2020 CPX1130 EGNX DTY3N DTY BPK L10 DVR UL9 KONAN UL607 KOK KOK5X EBLG B738 1h 08m

Route Details

Aircraft Information
Primary: Boeing 737-800BCF
Backup: Not Available
Route Data
Distance: 283nm
Sched. Duration: 1h 00m
Avg. Duration: 1h 08m (+9m)
Times Flown: 2
Recm'd Route: Not Available
Planned Altitude: 33,000ft
Origin Wx: EGNX 061150Z 26015KT 9999 FEW023 SCT041 16/09 Q1019
Dest. Wx: EBLG 061150Z 31007KT 270V340 9999 SCT043 16/09 Q1018 NOSIG
Notes:

Financial History
Total Freight: 87,648lbs
Average Load: 43,824lbs/flt
Fuel Used: 12,224lbs
Avg. Fuel Used: 6,112lbs/flt
Fuel Expense: $9,779
Avg. Fuel Expense: $4,890
Avg. Fuel Cost: $0.80/lbs
Total Gross Income: $192,826
Pilot Pay: $328
Total Expenses: $20,929
Total Revenue: $161,750
Average Revenue: $96,412.80